Terminal Aerodrome Forecast
Issued by NWS

Home | Current Version | Previous Version | Text Only | Print | Product List | Glossary On
Versions: 1 2 3 4 5 6 7 8 9 10 11 12 13 14 15 16 17 18 19 20 21 22 23
586
FTUS41 KPHI 031337 AAA
TAFMIV
TAF AMD
KMIV 031337Z 0314/0412 04008KT P6SM OVC003
     FM031700 04008KT P6SM OVC006
     FM032100 01006KT P6SM SCT008 OVC015
     FM040100 VRB02KT 5SM BR OVC005=

USA.gov is the U.S. government's official web portal to all federal, state and local government web resources and services.